Time;durP1;ratioP1;P1;durP2;ratioP2;P2;SDS_P1;SDS_P2;PMS_P1;PMS_P2;Temp;Humidity;BMP_temperature;BMP_pressure;BME280_temperature;BME280_humidity;BME280_pressure;Samples;Min_cycle;Max_cycle;Signal;HPM_P1;HPM_P2
2021/04/02 00:00:22;;;;;;;27.92;17.83;;;;;;;12.39;59.19;98327.98;302790;111;2134944;-71
2021/04/02 00:01:27;;;;;;;27.37;15.91;;;;;;;12.40;59.14;98326.91;294758;111;2222657;-72
2021/04/02 00:02:32;;;;;;;25.74;15.99;;;;;;;12.45;58.98;98322.38;323252;111;1962015;-72
2021/04/02 00:03:39;;;;;;;26.68;17.19;;;;;;;12.50;58.89;98327.86;346125;111;1960731;-72
2021/04/02 00:04:45;;;;;;;24.60;16.71;;;;;;;12.50;58.90;98311.61;357456;110;1960751;-72
2021/04/02 00:05:53;;;;;;;23.14;14.79;;;;;;;12.53;58.80;98304.86;357034;111;1961941;-72
2021/04/02 00:06:59;;;;;;;24.63;16.29;;;;;;;12.57;58.48;98329.55;357011;111;1961012;-72
2021/04/02 00:08:05;;;;;;;24.79;15.11;;;;;;;12.59;58.57;98303.03;356610;111;1962985;-72
2021/04/02 00:09:12;;;;;;;24.10;15.50;;;;;;;12.60;58.51;98304.69;357204;111;1961981;-72
2021/04/02 00:10:22;;;;;;;23.99;15.82;;;;;;;12.62;58.42;98299.81;357551;111;1962962;-72
2021/04/02 00:11:27;;;;;;;23.31;16.27;;;;;;;12.62;58.40;98292.53;321988;111;1962007;-72
2021/04/02 00:12:33;;;;;;;26.83;16.82;;;;;;;12.63;58.49;98293.34;357979;111;1963012;-71
2021/04/02 00:13:44;;;;;;;28.82;17.43;;;;;;;12.63;58.41;98298.77;357940;111;1962026;-71
2021/04/02 00:14:49;;;;;;;24.39;16.23;;;;;;;12.62;58.45;98305.23;356015;111;1962002;-71
2021/04/02 00:15:55;;;;;;;29.55;17.23;;;;;;;12.62;58.47;98305.23;359091;111;1962939;-71
2021/04/02 00:17:02;;;;;;;25.68;16.54;;;;;;;12.61;58.36;98296.30;348941;111;2932974;-71
2021/04/02 00:18:08;;;;;;;24.51;15.59;;;;;;;12.64;58.30;98294.97;357999;111;1963095;-71
2021/04/02 00:19:14;;;;;;;23.65;15.38;;;;;;;12.64;58.05;98290.37;356472;111;1963094;-71
2021/04/02 00:20:20;;;;;;;24.69;15.45;;;;;;;12.65;57.87;98288.47;360355;111;1962088;-72
2021/04/02 00:21:26;;;;;;;22.95;14.97;;;;;;;12.66;57.67;98287.42;307833;111;2867903;-71
2021/04/02 00:22:32;;;;;;;21.24;13.87;;;;;;;12.67;57.28;98275.50;352140;111;1961938;-70
2021/04/02 00:23:38;;;;;;;21.97;13.80;;;;;;;12.67;57.16;98283.63;355595;111;1961976;-71
2021/04/02 00:24:43;;;;;;;25.30;14.24;;;;;;;12.66;56.91;98266.55;358213;111;1961992;-72
2021/04/02 00:25:49;;;;;;;22.17;14.56;;;;;;;12.69;56.92;98267.94;358717;111;1965981;-71
2021/04/02 00:26:56;;;;;;;25.79;13.92;;;;;;;12.68;56.90;98269.02;349564;111;2951057;-71
2021/04/02 00:28:04;;;;;;;18.43;11.64;;;;;;;12.69;56.88;98263.34;332897;111;1961961;-71
2021/04/02 00:29:11;;;;;;;21.49;13.77;;;;;;;12.68;56.89;98253.58;356453;111;1963918;-71
2021/04/02 00:30:22;;;;;;;22.22;13.93;;;;;;;12.68;56.98;98250.06;356746;111;1961925;-72
2021/04/02 00:31:27;;;;;;;20.01;11.87;;;;;;;12.66;57.08;98247.59;357136;111;1961988;-72
2021/04/02 00:32:33;;;;;;;20.42;13.41;;;;;;;12.65;57.10;98248.67;360550;111;1961972;-72
2021/04/02 00:33:38;;;;;;;21.25;12.12;;;;;;;12.64;57.11;98233.48;358543;111;1961898;-71
2021/04/02 00:34:44;;;;;;;22.26;12.57;;;;;;;12.66;57.10;98244.07;356220;111;1962022;-72
2021/04/02 00:35:51;;;;;;;21.86;12.89;;;;;;;12.66;56.97;98241.36;312815;111;2750983;-72
2021/04/02 00:36:56;;;;;;;19.57;13.68;;;;;;;12.64;57.15;98257.86;356636;111;1963966;-71
2021/04/02 00:38:03;;;;;;;22.11;13.11;;;;;;;12.61;57.26;98268.39;357985;111;1961948;-71
2021/04/02 00:39:09;;;;;;;21.48;13.10;;;;;;;12.59;57.31;98268.63;357297;111;1963941;-71
2021/04/02 00:40:19;;;;;;;19.54;13.79;;;;;;;12.59;57.35;98275.95;308123;111;2236012;-71
2021/04/02 00:41:25;;;;;;;19.44;13.42;;;;;;;12.56;57.50;98271.86;323815;111;2892965;-72
2021/04/02 00:42:30;;;;;;;21.14;14.32;;;;;;;12.52;57.58;98266.13;324609;111;1962907;-72
2021/04/02 00:43:38;;;;;;;20.43;13.98;;;;;;;12.50;57.67;98262.85;331932;111;1961991;-71
2021/04/02 00:44:45;;;;;;;20.27;12.44;;;;;;;12.46;57.72;98261.73;325345;111;2886986;-71
2021/04/02 00:45:50;;;;;;;19.98;13.14;;;;;;;12.46;57.40;98256.32;326943;111;1962001;-72
2021/04/02 00:46:55;;;;;;;20.93;13.28;;;;;;;12.46;57.44;98264.45;351373;111;1961950;-71
2021/04/02 00:48:04;;;;;;;22.73;13.78;;;;;;;12.46;57.43;98261.73;358891;111;1961893;-71
2021/04/02 00:49:09;;;;;;;21.52;13.33;;;;;;;12.44;57.32;98253.04;333957;111;2339945;-71
2021/04/02 00:50:36;;;;;;;21.32;13.76;;;;;;;12.45;57.21;98256.56;356553;111;1963921;-71
2021/04/02 00:51:41;;;;;;;23.43;15.02;;;;;;;12.43;57.39;98251.38;357336;111;1962027;-71
2021/04/02 00:52:46;;;;;;;26.86;13.50;;;;;;;12.42;57.35;98257.88;357778;111;1961934;-71
2021/04/02 00:53:53;;;;;;;21.63;13.53;;;;;;;12.46;57.05;98255.48;358812;111;1961948;-71
2021/04/02 00:54:59;;;;;;;22.97;14.53;;;;;;;12.45;57.00;98256.56;319115;111;2637995;-72
2021/04/02 00:56:06;;;;;;;21.44;13.77;;;;;;;12.44;56.92;98244.10;348377;111;1963959;-71
2021/04/02 00:57:11;;;;;;;20.59;13.57;;;;;;;12.42;56.99;98246.23;357631;111;1962024;-73
2021/04/02 00:58:20;;;;;;;22.58;14.68;;;;;;;12.42;57.03;98240.82;358325;111;1962073;-72
2021/04/02 00:59:25;;;;;;;22.01;14.86;;;;;;;12.41;56.99;98236.45;357648;111;1961949;-71
2021/04/02 01:00:31;;;;;;;26.54;15.60;;;;;;;12.38;56.92;98232.36;358922;111;1961970;-71
2021/04/02 01:01:37;;;;;;;22.07;15.07;;;;;;;12.39;56.75;98227.80;357910;111;1961946;-71
2021/04/02 01:02:45;;;;;;;21.13;13.84;;;;;;;12.39;56.67;98231.31;324256;111;2882831;-71
2021/04/02 01:03:53;;;;;;;20.42;13.61;;;;;;;12.38;56.62;98226.95;358323;111;1962010;-71
2021/04/02 01:05:00;;;;;;;24.59;15.35;;;;;;;12.36;56.64;98228.27;322386;111;2569995;-72
2021/04/02 01:06:12;;;;;;;27.50;15.01;;;;;;;12.35;56.69;98238.29;358029;111;1963908;-71
2021/04/02 01:07:19;;;;;;;26.61;15.54;;;;;;;12.33;56.67;98232.30;310398;111;2814041;-71
2021/04/02 01:08:27;;;;;;;24.47;15.62;;;;;;;12.31;56.82;98223.64;357546;111;1962004;-72
2021/04/02 01:09:33;;;;;;;22.24;14.69;;;;;;;12.28;56.86;98221.44;330347;111;1962010;-71
2021/04/02 01:10:41;;;;;;;21.75;14.91;;;;;;;12.24;56.87;98221.11;355839;111;1961980;-72
2021/04/02 01:11:47;;;;;;;23.81;15.27;;;;;;;12.23;56.90;98224.89;357353;111;1961962;-72
2021/04/02 01:13:06;;;;;;;25.58;15.72;;;;;;;12.19;57.01;98220.23;315775;111;2731954;-72
2021/04/02 01:14:12;;;;;;;23.34;15.28;;;;;;;12.17;57.07;98219.66;349230;111;1963032;-71
2021/04/02 01:15:36;;;;;;;21.27;13.77;;;;;;;12.14;57.16;98212.04;332471;111;2905001;-71
2021/04/02 01:16:44;;;;;;;21.83;13.93;;;;;;;12.12;57.12;98212.31;315525;111;2708029;-72
2021/04/02 01:17:53;;;;;;;22.44;14.42;;;;;;;12.10;57.07;98217.96;356021;111;1963817;-71
2021/04/02 01:19:07;;;;;;;25.39;16.39;;;;;;;12.09;57.18;98223.61;357780;111;1964996;-71
2021/04/02 01:20:16;;;;;;;26.77;14.67;;;;;;;12.07;57.19;98228.48;356792;111;1961876;-72
2021/04/02 01:21:38;;;;;;;24.99;15.02;;;;;;;12.05;57.19;98217.89;310688;111;2766957;-72
2021/04/02 01:22:46;;;;;;;21.44;14.16;;;;;;;12.02;57.30;98220.30;357195;111;1962946;-71
2021/04/02 01:23:59;;;;;;;23.11;14.97;;;;;;;11.99;57.37;98232.44;312102;111;2786956;-71
2021/04/02 01:25:15;;;;;;;23.87;14.25;;;;;;;11.99;57.38;98220.80;354028;111;1961948;-72
2021/04/02 01:26:50;;;;;;;24.14;15.57;;;;;;;11.95;57.43;98217.75;356672;111;1961963;-71
2021/04/02 01:28:25;;;;;;;22.88;14.24;;;;;;;11.94;57.43;98223.44;356791;111;1962866;-71
2021/04/02 01:29:39;;;;;;;23.10;13.49;;;;;;;11.90;57.61;98231.22;343893;111;1962991;-71
2021/04/02 01:30:46;;;;;;;24.98;15.63;;;;;;;11.89;57.62;98213.35;354532;111;1961887;-71
2021/04/02 01:31:55;;;;;;;21.52;15.14;;;;;;;11.86;57.63;98222.79;308222;111;2240006;-71
2021/04/02 01:33:03;;;;;;;22.44;15.15;;;;;;;11.85;57.79;98220.28;320879;111;2609978;-71
2021/04/02 01:34:09;;;;;;;25.41;15.79;;;;;;;11.84;57.82;98221.37;357508;111;1962955;-71
2021/04/02 01:35:19;;;;;;;23.84;14.71;;;;;;;11.84;57.86;98214.06;357187;111;1961928;-71
2021/04/02 01:36:27;;;;;;;26.61;15.21;;;;;;;11.83;57.91;98211.63;357491;111;1961915;-72
2021/04/02 01:37:36;;;;;;;22.03;14.64;;;;;;;11.80;57.91;98214.80;357024;111;1961979;-72
2021/04/02 01:38:43;;;;;;;26.03;15.76;;;;;;;11.78;58.07;98209.66;356331;111;1961982;-72
2021/04/02 01:39:51;;;;;;;24.19;15.17;;;;;;;11.77;58.03;98209.89;356229;111;1961938;-71
2021/04/02 01:41:05;;;;;;;26.22;15.98;;;;;;;11.76;58.16;98210.98;357550;111;1961793;-72
2021/04/02 01:42:14;;;;;;;24.93;15.97;;;;;;;11.73;58.24;98204.17;308990;111;2232992;-72
2021/04/02 01:43:24;;;;;;;20.59;14.72;;;;;;;11.68;58.26;98204.10;334938;111;2363186;-71
2021/04/02 01:44:34;;;;;;;23.71;14.10;;;;;;;11.68;58.40;98205.99;308505;112;2782999;-73
2021/04/02 01:45:43;;;;;;;25.56;15.24;;;;;;;11.69;58.46;98205.73;314943;112;2656010;-70
2021/04/02 01:46:50;;;;;;;26.18;15.68;;;;;;;11.69;58.55;98211.14;352556;112;1962008;-71
2021/04/02 01:47:59;;;;;;;24.74;16.23;;;;;;;11.68;58.50;98201.40;334520;114;1962013;-72
2021/04/02 01:49:07;;;;;;;25.12;15.71;;;;;;;11.65;58.66;98188.38;303050;114;2071412;-71
2021/04/02 01:50:16;;;;;;;23.03;13.85;;;;;;;11.65;58.63;98189.19;351343;112;1962028;-71
2021/04/02 01:51:24;;;;;;;25.67;14.76;;;;;;;11.67;58.71;98197.06;353643;112;1961937;-71
2021/04/02 01:52:30;;;;;;;24.69;15.48;;;;;;;11.62;58.69;98200.52;315519;112;2661052;-71
2021/04/02 01:53:39;;;;;;;23.79;15.91;;;;;;;11.62;58.85;98202.41;351863;112;1961985;-71
2021/04/02 01:54:45;;;;;;;23.81;15.11;;;;;;;11.62;58.93;98197.80;318216;112;1962021;-72
2021/04/02 01:55:53;;;;;;;23.77;14.79;;;;;;;11.61;58.97;98198.86;353520;112;1961935;-71
2021/04/02 01:57:02;;;;;;;23.32;14.39;;;;;;;11.57;59.08;98192.33;353535;112;1961918;-71
2021/04/02 01:58:11;;;;;;;24.37;15.11;;;;;;;11.59;59.20;98192.90;352571;112;1965078;-71
2021/04/02 01:59:18;;;;;;;20.33;13.69;;;;;;;11.57;59.04;98195.03;348164;114;1962046;-71
2021/04/02 02:00:29;;;;;;;20.93;14.63;;;;;;;11.58;59.05;98191.24;348696;114;1961968;-70
2021/04/02 02:01:41;;;;;;;22.96;14.68;;;;;;;11.56;59.33;98189.85;350997;112;1961976;-72
2021/04/02 02:02:52;;;;;;;21.17;14.36;;;;;;;11.54;59.28;98181.20;294401;112;2202930;-70
2021/04/02 02:04:01;;;;;;;26.19;16.31;;;;;;;11.54;59.23;98181.20;353998;112;1962077;-72
2021/04/02 02:05:09;;;;;;;25.96;14.01;;;;;;;11.54;59.24;98189.31;354205;112;1961993;-71
2021/04/02 02:06:16;;;;;;;22.93;13.89;;;;;;;11.54;59.15;98183.89;354002;112;1961964;-72
2021/04/02 02:07:29;;;;;;;21.87;14.76;;;;;;;11.55;59.15;98190.93;352842;112;1962009;-71
2021/04/02 02:08:41;;;;;;;22.14;14.71;;;;;;;11.55;59.15;98189.04;354450;112;1961975;-71
2021/04/02 02:09:51;;;;;;;24.60;14.83;;;;;;;11.54;59.15;98175.78;317593;111;2654995;-71
2021/04/02 02:11:02;;;;;;;21.52;13.69;;;;;;;11.54;59.13;98178.48;343542;112;1961849;-71
2021/04/02 02:12:11;;;;;;;19.60;12.99;;;;;;;11.52;59.11;98181.43;332903;112;2328070;-71
2021/04/02 02:13:21;;;;;;;24.19;14.66;;;;;;;11.43;59.10;98163.97;350252;112;1964010;-71
2021/04/02 02:14:32;;;;;;;21.98;13.54;;;;;;;11.51;59.14;98166.28;351859;112;1961978;-71
2021/04/02 02:15:41;;;;;;;21.03;14.05;;;;;;;11.50;59.07;98172.73;352896;112;1963991;-70
2021/04/02 02:16:53;;;;;;;22.02;14.82;;;;;;;11.49;59.09;98173.81;353657;112;1962948;-71
2021/04/02 02:18:01;;;;;;;20.71;14.34;;;;;;;11.49;59.11;98176.52;352723;112;1961975;-70
2021/04/02 02:19:14;;;;;;;21.76;13.48;;;;;;;11.50;59.05;98174.63;329817;112;2397060;-71
2021/04/02 02:20:23;;;;;;;25.16;15.72;;;;;;;11.48;59.25;98169.45;321885;112;2882971;-71
2021/04/02 02:21:29;;;;;;;23.58;14.19;;;;;;;11.46;59.14;98174.32;354093;112;1962990;-71
2021/04/02 02:22:38;;;;;;;21.37;13.66;;;;;;;11.48;59.19;98176.76;353331;112;1965059;-72
2021/04/02 02:23:49;;;;;;;25.41;15.46;;;;;;;11.47;59.27;98178.65;355327;112;1961925;-71
2021/04/02 02:24:57;;;;;;;25.61;14.32;;;;;;;11.43;59.53;98183.74;317359;114;2234009;-71
2021/04/02 02:26:04;;;;;;;23.01;15.13;;;;;;;11.45;59.38;98194.30;340983;115;1963014;-71
2021/04/02 02:27:11;;;;;;;21.85;14.28;;;;;;;11.43;59.36;98183.74;315395;112;2651967;-71
2021/04/02 02:28:18;;;;;;;23.05;14.72;;;;;;;11.42;59.50;98175.87;354169;112;1962034;-71
2021/04/02 02:29:25;;;;;;;25.15;15.56;;;;;;;11.41;59.41;98169.65;352585;112;1961994;-71
2021/04/02 02:30:35;;;;;;;26.12;14.78;;;;;;;11.41;59.47;98163.43;353027;112;1961973;-71
2021/04/02 02:31:51;;;;;;;21.49;13.51;;;;;;;11.42;59.35;98165.87;309798;112;2048733;-71
2021/04/02 02:32:58;;;;;;;22.87;15.18;;;;;;;11.42;59.35;98159.64;353053;112;1962059;-71
2021/04/02 02:34:07;;;;;;;22.41;14.64;;;;;;;11.40;59.36;98156.36;302375;112;2126071;-72
2021/04/02 02:35:14;;;;;;;23.90;14.94;;;;;;;11.39;59.45;98170.96;353258;112;1962011;-71
2021/04/02 02:36:22;;;;;;;23.82;15.19;;;;;;;11.41;59.46;98171.54;352828;112;1962037;-71
2021/04/02 02:37:29;;;;;;;21.86;14.43;;;;;;;11.41;59.47;98177.77;353675;112;1961988;-71
2021/04/02 02:38:35;;;;;;;23.57;14.79;;;;;;;11.41;59.49;98175.05;319561;112;2594989;-72
2021/04/02 02:39:42;;;;;;;24.27;14.46;;;;;;;11.42;59.43;98170.46;354902;111;1961902;-72
2021/04/02 02:40:49;;;;;;;22.53;14.35;;;;;;;11.43;59.33;98172.93;354107;112;1961988;-72
2021/04/02 02:41:56;;;;;;;21.51;13.82;;;;;;;11.43;59.31;98170.23;333621;112;1961967;-71
2021/04/02 02:43:01;;;;;;;23.52;14.51;;;;;;;11.44;59.33;98162.93;354175;112;1961920;-71
2021/04/02 02:44:08;;;;;;;22.16;14.52;;;;;;;11.44;59.31;98171.85;354498;112;1961987;-71
2021/04/02 02:45:15;;;;;;;20.14;14.07;;;;;;;11.43;59.31;98170.23;344906;112;2960031;-72
2021/04/02 02:46:27;;;;;;;22.22;14.82;;;;;;;11.45;59.20;98175.37;353769;112;1962976;-72
2021/04/02 02:47:34;;;;;;;23.75;15.02;;;;;;;11.45;59.25;98178.07;311275;112;2723013;-71
2021/04/02 02:48:47;;;;;;;22.25;14.24;;;;;;;11.44;59.33;98184.56;353907;112;1961946;-71
2021/04/02 02:49:55;;;;;;;22.01;13.72;;;;;;;11.42;59.41;98181.28;287979;112;2243980;-72
2021/04/02 02:51:01;;;;;;;24.72;14.48;;;;;;;11.43;59.26;98197.27;353553;112;1962925;-72
2021/04/02 02:52:08;;;;;;;23.13;13.37;;;;;;;11.43;59.23;98197.27;355607;112;1961976;-71
2021/04/02 02:53:17;;;;;;;21.64;14.19;;;;;;;11.42;59.21;98190.20;357989;112;1961980;-71
2021/04/02 02:54:24;;;;;;;24.03;14.82;;;;;;;11.42;59.16;98198.31;289807;112;2241135;-73
2021/04/02 02:55:34;;;;;;;19.87;14.25;;;;;;;11.40;59.25;98195.03;353082;112;1964035;-73
2021/04/02 02:56:42;;;;;;;21.97;13.66;;;;;;;11.42;59.26;98195.61;347402;114;1960656;-72
2021/04/02 02:57:50;;;;;;;24.02;14.57;;;;;;;11.41;59.33;98190.47;298630;114;2110761;-71
2021/04/02 03:01:27;;;;;;;22.87;14.24;;;;;;;11.54;59.05;98183.89;393099;104;1985956;-71
2021/04/02 03:02:33;;;;;;;21.90;14.02;;;;;;;11.41;59.04;98191.28;357187;107;2255997;-73
2021/04/02 03:03:55;;;;;;;22.88;14.89;;;;;;;11.38;59.03;98189.08;375223;107;1963993;-72
2021/04/02 03:05:03;;;;;;;23.06;14.16;;;;;;;11.39;58.87;98184.48;371935;107;1960670;-73
2021/04/02 03:06:11;;;;;;;22.75;14.01;;;;;;;11.36;58.92;98183.09;371574;107;1961025;-71
2021/04/02 03:07:19;;;;;;;23.42;13.79;;;;;;;11.35;58.92;98183.32;318804;107;2112626;-73
2021/04/02 03:08:27;;;;;;;22.75;13.62;;;;;;;11.38;58.74;98182.85;365111;109;1961923;-71
2021/04/02 03:09:37;;;;;;;23.17;14.24;;;;;;;11.33;58.85;98191.70;365889;107;1962991;-72
2021/04/02 03:10:45;;;;;;;22.25;13.31;;;;;;;11.32;58.81;98183.82;371207;107;1961881;-72
2021/04/02 03:11:53;;;;;;;23.17;14.33;;;;;;;11.30;58.91;98189.49;372713;107;1960881;-71
2021/04/02 03:13:00;;;;;;;24.55;14.74;;;;;;;11.31;58.74;98195.72;370907;107;1961944;-73
2021/04/02 03:14:08;;;;;;;21.49;12.96;;;;;;;11.30;58.84;98196.76;337580;107;2561876;-70
2021/04/02 03:15:16;;;;;;;26.01;14.95;;;;;;;11.30;58.82;98196.76;371164;107;1961980;-72
2021/04/02 03:16:25;;;;;;;21.41;14.41;;;;;;;11.25;58.93;98200.22;372564;107;1962037;-71
2021/04/02 03:17:38;;;;;;;22.16;14.04;;;;;;;11.22;58.88;98188.02;363577;107;1963938;-72
2021/04/02 03:18:47;;;;;;;22.27;13.33;;;;;;;11.23;58.90;98188.83;371905;109;1961954;-72
2021/04/02 03:19:54;;;;;;;22.80;13.68;;;;;;;11.22;58.87;98179.91;371398;107;1962019;-71
2021/04/02 03:21:03;;;;;;;23.82;14.54;;;;;;;11.19;58.94;98193.92;368490;107;1962932;-72
2021/04/02 03:22:11;;;;;;;22.36;14.16;;;;;;;11.17;59.11;98189.83;370828;107;1961961;-72
2021/04/02 03:23:24;;;;;;;21.60;13.26;;;;;;;11.15;59.02;98181.95;370415;107;1961994;-72
2021/04/02 03:24:34;;;;;;;22.25;12.86;;;;;;;11.15;58.95;98181.14;371923;107;1961948;-72
2021/04/02 03:25:42;;;;;;;22.39;14.51;;;;;;;11.12;59.03;98176.23;341025;107;2475074;-72
2021/04/02 03:26:55;;;;;;;20.74;14.06;;;;;;;11.10;59.25;98175.65;370652;107;1961971;-73
2021/04/02 03:28:01;;;;;;;;;;;;;;;11.09;59.18;98180.23;375099;107;1961029;-72
2021/04/02 03:29:12;;;;;;;21.86;13.63;;;;;;;11.08;59.14;98183.98;336396;107;2903980;-72
2021/04/02 03:30:19;;;;;;;24.83;13.95;;;;;;;11.07;59.08;98182.36;371199;107;1962012;-72
2021/04/02 03:31:27;;;;;;;22.99;13.82;;;;;;;11.07;59.00;98186.95;364247;109;1963003;-72
2021/04/02 03:32:34;;;;;;;24.46;15.76;;;;;;;11.04;59.08;98188.27;363986;109;1962061;-72
2021/04/02 03:33:43;;;;;;;21.44;14.24;;;;;;;11.03;59.23;98188.49;371262;107;1962039;-71
2021/04/02 03:34:55;;;;;;;22.98;15.16;;;;;;;10.97;59.56;98185.70;370845;107;1964054;-72
2021/04/02 03:36:04;;;;;;;22.78;14.82;;;;;;;10.96;59.45;98181.38;371489;107;1963089;-71
2021/04/02 03:37:12;;;;;;;19.99;13.98;;;;;;;10.94;59.51;98178.09;370757;107;1961933;-72
2021/04/02 03:38:22;;;;;;;22.77;14.96;;;;;;;10.93;59.58;98179.17;343111;107;1963036;-72
2021/04/02 03:39:30;;;;;;;23.56;13.57;;;;;;;10.91;59.70;98183.18;369273;107;1960746;-72
2021/04/02 03:40:40;;;;;;;21.52;14.93;;;;;;;10.90;59.78;98186.92;344099;107;1964963;-72
2021/04/02 03:41:49;;;;;;;24.24;15.32;;;;;;;10.89;59.82;98188.00;364360;109;1961961;-71
2021/04/02 03:42:58;;;;;;;23.53;15.13;;;;;;;10.89;59.87;98193.41;364816;109;1964029;-72
2021/04/02 03:44:05;;;;;;;22.88;15.02;;;;;;;10.88;60.10;98200.69;341270;107;1961933;-73
2021/04/02 03:45:13;;;;;;;22.28;14.54;;;;;;;10.88;60.17;98197.18;370798;107;1962112;-71
2021/04/02 03:46:22;;;;;;;21.74;14.85;;;;;;;10.87;60.21;98200.92;363144;109;1961962;-71
2021/04/02 03:47:28;;;;;;;23.69;15.23;;;;;;;10.85;60.07;98198.48;319228;109;2063982;-72
2021/04/02 03:48:38;;;;;;;21.92;14.86;;;;;;;10.84;60.17;98198.72;369147;107;1962927;-72
2021/04/02 03:49:47;;;;;;;19.67;14.27;;;;;;;10.82;60.49;98201.65;371117;107;1961984;-71
2021/04/02 03:50:55;;;;;;;22.17;15.42;;;;;;;10.80;60.29;98198.39;309215;107;2201371;-72
2021/04/02 03:52:07;;;;;;;23.19;15.31;;;;;;;10.81;60.40;98197.31;370284;107;1962090;-72
2021/04/02 03:53:22;;;;;;;24.31;14.50;;;;;;;10.79;60.42;98196.73;348669;107;1963027;-72
2021/04/02 03:54:31;;;;;;;23.11;15.22;;;;;;;10.79;60.52;98185.94;371285;107;1964006;-72
2021/04/02 03:55:39;;;;;;;23.14;15.96;;;;;;;10.76;60.41;98195.34;303266;111;2150535;-73
2021/04/02 03:56:48;;;;;;;23.48;14.96;;;;;;;10.76;60.48;98189.13;351100;111;1963030;-73
2021/04/02 03:58:00;;;;;;;23.24;15.14;;;;;;;10.73;60.67;98187.73;364637;109;1961919;-73
2021/04/02 03:59:07;;;;;;;23.36;15.98;;;;;;;10.72;60.78;98188.80;329841;109;2912985;-72
2021/04/02 04:00:20;;;;;;;24.18;15.34;;;;;;;10.71;60.77;98180.93;315233;109;2231997;-72
2021/04/02 04:01:34;;;;;;;23.93;14.99;;;;;;;10.72;60.91;98182.59;339081;111;2931031;-73
2021/04/02 04:02:44;;;;;;;22.40;14.37;;;;;;;10.70;60.91;98173.91;340721;112;1963010;-71
2021/04/02 04:03:53;;;;;;;26.49;14.47;;;;;;;10.69;60.97;98175.79;333670;112;2329055;-72
2021/04/02 04:05:01;;;;;;;26.81;16.03;;;;;;;10.70;61.03;98169.31;357347;111;1961839;-71
2021/04/02 04:06:09;;;;;;;26.13;16.91;;;;;;;10.70;61.03;98169.31;356331;111;1961946;-71
2021/04/02 04:07:18;;;;;;;30.47;16.25;;;;;;;10.70;61.04;98163.91;333054;109;2480931;-71
2021/04/02 04:08:26;;;;;;;30.26;17.42;;;;;;;10.70;61.06;98174.72;329717;109;2551017;-72
2021/04/02 04:09:36;;;;;;;26.91;17.28;;;;;;;10.70;61.31;98166.61;362560;109;1962032;-72
2021/04/02 04:10:47;;;;;;;31.58;18.77;;;;;;;10.70;61.31;98161.21;302098;109;2192421;-73
2021/04/02 04:11:56;;;;;;;26.86;16.86;;;;;;;10.72;61.37;98161.80;362282;109;1964018;-73
2021/04/02 04:13:14;;;;;;;28.96;17.07;;;;;;;10.74;61.35;98153.43;343469;109;2248985;-72
2021/04/02 04:14:21;;;;;;;28.51;17.74;;;;;;;10.75;61.33;98158.60;311230;109;2125800;-72
2021/04/02 04:15:29;;;;;;;28.51;17.54;;;;;;;10.77;61.39;98164.59;363189;110;1961978;-72
2021/04/02 04:16:40;;;;;;;26.17;16.13;;;;;;;10.79;61.33;98159.73;359295;113;1961917;-71
2021/04/02 04:17:48;;;;;;;26.18;16.47;;;;;;;10.80;61.25;98160.58;362424;109;1962003;-71
2021/04/02 04:18:58;;;;;;;26.52;15.88;;;;;;;10.82;61.28;98160.31;297372;114;2174577;-72
2021/04/02 04:20:07;;;;;;;24.68;15.38;;;;;;;10.82;61.23;98165.72;358536;111;1960844;-71
2021/04/02 04:21:16;;;;;;;25.34;15.69;;;;;;;10.83;61.20;98159.27;308891;109;2152556;-72
2021/04/02 04:22:30;;;;;;;26.86;16.14;;;;;;;10.84;61.18;98161.71;326628;111;1960855;-71
2021/04/02 04:23:39;;;;;;;26.48;15.96;;;;;;;10.86;61.12;98158.78;354355;112;1962029;-71
2021/04/02 04:24:48;;;;;;;26.04;17.51;;;;;;;10.88;61.04;98160.17;360020;112;1962043;-72
2021/04/02 04:25:56;;;;;;;38.80;16.97;;;;;;;10.90;61.09;98152.65;332631;112;2449927;-72
2021/04/02 04:27:04;;;;;;;23.72;16.28;;;;;;;10.91;61.06;98158.86;361691;109;1963024;-72
2021/04/02 04:28:11;;;;;;;25.87;16.74;;;;;;;10.92;61.00;98155.91;358878;113;1962023;-73
2021/04/02 04:29:23;;;;;;;21.18;15.46;;;;;;;10.92;60.91;98150.50;363181;109;1964942;-73
2021/04/02 04:30:31;;;;;;;25.86;15.74;;;;;;;10.96;60.80;98142.74;356296;113;1963033;-72
2021/04/02 04:31:41;;;;;;;27.37;16.80;;;;;;;10.98;60.70;98146.83;311296;111;2861091;-72
2021/04/02 04:32:49;;;;;;;28.30;17.17;;;;;;;11.01;60.63;98148.23;311747;111;2807992;-72
2021/04/02 04:33:58;;;;;;;25.93;17.31;;;;;;;11.02;60.62;98147.16;363147;109;1962336;-72
2021/04/02 04:35:04;;;;;;;31.67;18.27;;;;;;;11.04;60.56;98138.81;359339;112;1961982;-73
2021/04/02 04:36:11;;;;;;;28.51;17.15;;;;;;;11.07;60.57;98146.42;357908;112;1961997;-71
2021/04/02 04:37:19;;;;;;;26.62;17.13;;;;;;;11.10;60.48;98144.03;317149;112;2703945;-72
2021/04/02 04:38:28;;;;;;;24.53;15.96;;;;;;;11.12;60.41;98135.70;357840;112;1961916;-72
2021/04/02 04:39:34;;;;;;;29.00;15.51;;;;;;;11.14;60.32;98142.48;358635;112;1964919;-73
2021/04/02 04:40:43;;;;;;;27.27;17.28;;;;;;;11.16;60.24;98132.23;324633;112;2892042;-72
2021/04/02 04:41:52;;;;;;;27.09;17.09;;;;;;;11.18;60.17;98138.21;357805;111;1962011;-72
2021/04/02 04:42:59;;;;;;;31.80;16.91;;;;;;;11.20;60.12;98136.09;339973;112;1961913;-72
2021/04/02 04:44:07;;;;;;;23.82;15.38;;;;;;;11.20;60.05;98141.49;355092;113;1961936;-73
2021/04/02 04:45:16;;;;;;;22.46;14.81;;;;;;;11.22;60.05;98135.85;352587;111;1963003;-72
2021/04/02 04:46:23;;;;;;;27.18;16.03;;;;;;;11.23;59.73;98146.40;348089;109;1961942;-72
2021/04/02 04:47:29;;;;;;;24.14;15.94;;;;;;;11.26;59.85;98142.38;357299;113;1962068;-72
2021/04/02 04:48:35;;;;;;;23.17;15.82;;;;;;;11.27;59.84;98143.19;361952;110;1961980;-71
2021/04/02 04:49:42;;;;;;;23.76;15.56;;;;;;;11.25;59.75;98148.87;331490;110;2529073;-72
2021/04/02 04:50:48;;;;;;;23.73;14.62;;;;;;;11.28;59.61;98142.15;361937;109;1960989;-72
2021/04/02 04:51:55;;;;;;;27.34;16.18;;;;;;;11.28;59.49;98151.07;361939;109;1960742;-72
2021/04/02 04:53:10;;;;;;;26.52;16.05;;;;;;;11.27;59.52;98151.30;310898;111;2096835;-72
2021/04/02 04:54:18;;;;;;;26.63;16.20;;;;;;;11.27;59.55;98154.82;297333;111;2211597;-71
2021/04/02 04:55:26;;;;;;;25.75;16.61;;;;;;;11.26;59.58;98161.30;360408;111;1962945;-72
2021/04/02 04:56:37;;;;;;;26.91;16.74;;;;;;;11.24;59.60;98160.72;358274;111;1962041;-72
2021/04/02 04:57:43;;;;;;;24.78;16.28;;;;;;;11.19;59.79;98158.78;355853;113;1962008;-72
2021/04/02 04:58:53;;;;;;;25.75;16.08;;;;;;;11.17;59.91;98165.50;359639;112;1965974;-72
2021/04/02 05:00:00;;;;;;;26.96;17.62;;;;;;;11.14;60.10;98164.11;362909;109;1962050;-72
2021/04/02 05:01:08;;;;;;;28.84;17.41;;;;;;;11.14;59.95;98171.37;350836;113;1961846;-73
2021/04/02 05:02:18;;;;;;;26.78;17.61;;;;;;;11.12;59.96;98182.45;316691;113;2910035;-72
2021/04/02 05:03:26;;;;;;;24.77;17.11;;;;;;;11.06;60.28;98188.84;360680;112;1961900;-72
2021/04/02 05:04:33;;;;;;;28.42;16.66;;;;;;;11.04;60.42;98188.27;359061;110;1962943;-73
2021/04/02 05:05:42;;;;;;;26.16;17.64;;;;;;;11.00;60.25;98185.21;366180;109;1962976;-72
2021/04/02 05:06:53;;;;;;;27.62;16.55;;;;;;;10.97;60.32;98177.59;340654;108;2454066;-80
2021/04/02 05:08:02;;;;;;;24.84;16.25;;;;;;;10.97;60.18;98177.59;349094;108;2923972;-72
2021/04/02 05:09:10;;;;;;;25.58;15.44;;;;;;;10.96;60.32;98178.67;367529;109;1961929;-72
2021/04/02 05:10:19;;;;;;;23.60;16.42;;;;;;;10.95;60.22;98178.91;369536;107;1963001;-73
2021/04/02 05:11:27;;;;;;;26.83;16.81;;;;;;;10.93;60.40;98176.47;368069;107;1963956;-72